Auburndale, Florida
Current Conditions -  °F | °C
As of 4:53 AM on Sunday 25 Jan 2015 (Local Time) from KGIF Reporting Station
Clear Clear  
Wind Chill: 44°   Ceiling: Unl
Heat Index: 46°   Visibility: 10mi
Dew Point: 42°   Wind: 5mph
Humidity: 86%   Direction: 310°NW
Pressure: 30.06"   Gusts: NA
Location:  28.06°N, 81.78°W
Report Text: KGIF 250953Z AUTO 31004KT 10SM CLR 08/06 A3006 RMK AO2 SLP179 T00780056
Loading
Personal Weather Stations






























Interactive Weather Map New forecast layout! Learn more

10-Day Weather Forecast

Advertisements
Track Severe Weather on mobile